Time;durP1;ratioP1;P1;durP2;ratioP2;P2;SDS_P1;SDS_P2;PMS_P1;PMS_P2;Temp;Humidity;BMP_temperature;BMP_pressure;BME280_temperature;BME280_humidity;BME280_pressure;Samples;Min_cycle;Max_cycle;Signal;HPM_P1;HPM_P2
2022/01/13 00:01:24;;;;;;;48.88;27.48;;;;;;;0.55;95.06;104105.88;5051317;28;20186;-75
2022/01/13 00:03:49;;;;;;;92.65;26.50;;;;;;;0.57;94.93;104109.47;5019755;28;20035;-75
2022/01/13 00:06:15;;;;;;;52.33;26.73;;;;;;;0.59;94.78;104105.38;5038736;28;20362;-75
2022/01/13 00:08:40;;;;;;;57.42;24.35;;;;;;;0.58;95.02;104111.28;5052997;28;20021;-75
2022/01/13 00:11:08;;;;;;;98.70;28.85;;;;;;;0.58;95.12;104116.47;5024345;28;20032;-75
2022/01/13 00:13:46;;;;;;;69.60;26.48;;;;;;;0.57;94.66;104119.81;5050532;28;20028;-75
2022/01/13 00:18:40;;;;;;;57.17;25.13;;;;;;;0.58;94.96;104125.88;5072396;28;20469;-75
2022/01/13 00:21:16;;;;;;;55.67;24.95;;;;;;;0.59;94.54;104132.84;5037721;28;20032;-75
2022/01/13 00:23:49;;;;;;;64.53;24.95;;;;;;;0.58;94.67;104131.06;5043914;28;20025;-74
2022/01/13 00:26:19;;;;;;;53.58;22.48;;;;;;;0.57;94.72;104124.97;5050734;28;20036;-74
2022/01/13 00:28:47;;;;;;;;;;;;;;;0.63;94.72;104135.81;5057090;28;20051;-74
2022/01/13 00:31:16;;;;;;;51.63;20.85;;;;;;;0.58;94.49;104126.78;5047936;28;19916;-75
2022/01/13 00:33:45;;;;;;;48.50;22.33;;;;;;;0.59;94.53;104122.50;5035231;28;20029;-75
2022/01/13 00:36:10;;;;;;;72.35;25.95;;;;;;;0.61;94.77;104123.56;5052780;28;20492;-75
2022/01/13 00:38:36;;;;;;;93.78;28.77;;;;;;;0.61;94.92;104119.28;5043789;28;20036;-74
2022/01/13 00:41:01;;;;;;;57.75;26.67;;;;;;;0.63;94.92;104112.59;5025011;28;20036;-74
2022/01/13 00:43:27;;;;;;;53.92;25.48;;;;;;;0.63;94.85;104107.44;5028494;28;20036;-75
2022/01/13 00:45:53;;;;;;;60.35;26.02;;;;;;;0.65;94.81;104103.28;5054346;28;20096;-75
2022/01/13 00:48:19;;;;;;;60.13;22.23;;;;;;;0.66;94.68;104104.16;5072168;28;20031;-75
2022/01/13 00:50:45;;;;;;;63.15;25.63;;;;;;;0.67;94.72;104106.88;5035863;28;20032;-74
2022/01/13 00:53:10;;;;;;;48.65;23.38;;;;;;;0.68;94.94;104100.94;5053427;28;20047;-75
2022/01/13 00:58:12;;;;;;;44.08;20.38;;;;;;;0.69;94.70;104094.13;5039566;28;20045;-74
2022/01/13 01:00:37;;;;;;;65.60;23.95;;;;;;;0.67;94.85;104093.06;5034033;28;20128;-75
2022/01/13 01:03:03;;;;;;;58.40;23.52;;;;;;;0.66;94.69;104088.69;5035959;28;20123;-73
2022/01/13 01:05:29;;;;;;;77.38;22.95;;;;;;;0.62;94.47;104087.53;5046021;28;20123;-74
2022/01/13 01:07:54;;;;;;;39.15;21.83;;;;;;;0.60;94.80;104086.50;5052650;28;20543;-74
2022/01/13 01:10:21;;;;;;;67.90;22.13;;;;;;;0.60;94.68;104090.78;5036226;28;20123;-74
2022/01/13 01:12:46;;;;;;;42.08;22.15;;;;;;;0.62;94.80;104086.66;5036801;28;20036;-75
2022/01/13 01:15:12;;;;;;;48.70;24.42;;;;;;;0.60;95.03;104089.09;5028594;28;20041;-75
2022/01/13 01:17:44;;;;;;;45.15;20.95;;;;;;;0.61;94.78;104087.44;5052678;28;20032;-75
2022/01/13 01:20:10;;;;;;;44.15;21.73;;;;;;;0.62;94.78;104092.72;5042880;28;20096;-75
2022/01/13 01:22:43;;;;;;;51.22;21.98;;;;;;;0.64;94.85;104096.31;5053148;28;20070;-75
2022/01/13 01:27:43;;;;;;;58.33;21.35;;;;;;;0.65;94.80;104095.53;5052304;28;20497;-74
2022/01/13 01:30:15;;;;;;;48.83;22.02;;;;;;;0.67;95.21;104100.81;5037249;28;20036;-74
2022/01/13 01:32:42;;;;;;;42.30;19.50;;;;;;;0.67;95.28;104095.66;5034733;28;20036;-74
2022/01/13 01:35:14;;;;;;;54.70;20.17;;;;;;;0.61;94.69;104096.06;5034087;28;20048;-74
2022/01/13 01:37:40;;;;;;;41.45;20.48;;;;;;;0.58;94.48;104090.66;5052546;28;20044;-74
2022/01/13 01:40:07;;;;;;;55.90;21.15;;;;;;;0.55;94.39;104092.06;5053076;28;20045;-74
2022/01/13 01:42:33;;;;;;;48.42;19.45;;;;;;;0.51;94.56;104093.50;5035942;28;20041;-74
2022/01/13 01:45:00;;;;;;;62.72;20.77;;;;;;;0.50;94.34;104091.69;5017722;28;20041;-74
2022/01/13 01:47:28;;;;;;;104.82;28.08;;;;;;;0.48;94.85;104090.69;5052003;28;20039;-74
2022/01/13 01:49:59;;;;;;;53.83;21.48;;;;;;;0.48;94.61;104095.84;5046697;28;20036;-74
2022/01/13 01:52:27;;;;;;;48.03;19.67;;;;;;;0.47;94.73;104087.19;5052879;28;20032;-74
2022/01/13 01:54:54;;;;;;;50.03;21.67;;;;;;;0.47;94.56;104083.72;5050992;28;20033;-74
2022/01/13 01:57:23;;;;;;;53.72;22.17;;;;;;;0.47;94.63;104099.19;5052638;28;20062;-74
2022/01/13 01:59:49;;;;;;;110.35;24.98;;;;;;;0.47;94.99;104088.88;5051437;28;20017;-74
2022/01/13 02:02:15;;;;;;;39.42;20.83;;;;;;;0.47;95.32;104086.28;5052224;28;20120;-75
2022/01/13 02:04:43;;;;;;;38.78;20.55;;;;;;;0.48;95.23;104083.81;5052852;28;20029;-74
2022/01/13 02:07:08;;;;;;;67.88;21.70;;;;;;;0.48;94.94;104088.09;5051899;28;20034;-74
2022/01/13 02:09:37;;;;;;;56.47;20.60;;;;;;;0.49;94.92;104084.75;5035352;28;20025;-74
2022/01/13 02:12:08;;;;;;;63.42;20.98;;;;;;;0.47;94.70;104088.88;5022535;28;20032;-73
2022/01/13 02:14:46;;;;;;;67.35;21.42;;;;;;;0.47;95.10;104094.03;5029309;28;20476;-75
2022/01/13 02:17:15;;;;;;;102.50;22.80;;;;;;;0.46;95.02;104098.28;5053212;28;20033;-74
2022/01/13 02:19:44;;;;;;;47.53;19.60;;;;;;;0.45;94.86;104091.31;5056680;28;20036;-74
2022/01/13 02:22:09;;;;;;;32.75;19.02;;;;;;;0.44;94.80;104098.94;5050838;28;20032;-74
2022/01/13 02:24:36;;;;;;;27.88;16.80;;;;;;;0.42;94.89;104105.66;5023805;28;20045;-73
2022/01/13 02:27:05;;;;;;;37.72;20.02;;;;;;;0.41;94.86;104114.19;5054627;28;20123;-73
2022/01/13 02:29:33;;;;;;;42.72;19.95;;;;;;;0.39;94.70;104113.13;5049890;28;20036;-74
2022/01/13 02:31:59;;;;;;;58.95;20.40;;;;;;;0.37;94.71;104114.69;5056781;28;20039;-73
2022/01/13 02:34:24;;;;;;;39.17;18.15;;;;;;;0.36;94.84;104110.28;5048548;28;20048;-74
2022/01/13 02:36:53;;;;;;;38.55;18.50;;;;;;;0.33;94.63;104101.53;5048438;28;20354;-74
2022/01/13 02:39:20;;;;;;;39.30;20.08;;;;;;;0.31;94.60;104100.50;5056781;28;20020;-74
2022/01/13 02:41:46;;;;;;;50.25;19.25;;;;;;;0.32;94.88;104096.25;5056451;28;20036;-74
2022/01/13 02:44:20;;;;;;;41.40;16.58;;;;;;;0.31;94.75;104104.75;5027087;28;20033;-74
2022/01/13 02:49:22;;;;;;;45.67;19.02;;;;;;;0.29;94.81;104098.59;5050986;28;20040;-73
2022/01/13 02:51:50;;;;;;;65.38;19.63;;;;;;;0.30;94.43;104105.53;5036569;28;20025;-74
2022/01/13 02:54:16;;;;;;;44.17;20.20;;;;;;;0.31;94.87;104099.59;5046139;28;20052;-74
2022/01/13 02:56:43;;;;;;;42.83;18.13;;;;;;;0.32;94.76;104092.00;5055317;28;20385;-74
2022/01/13 02:59:11;;;;;;;34.05;16.83;;;;;;;0.31;95.04;104090.19;5038315;28;20206;-73
2022/01/13 03:01:36;;;;;;;37.25;18.52;;;;;;;0.34;94.95;104095.63;5059807;28;20033;-74
2022/01/13 03:04:06;;;;;;;31.08;18.63;;;;;;;0.34;95.04;104095.63;5054302;28;20093;-73
2022/01/13 03:06:35;;;;;;;41.95;20.15;;;;;;;0.37;94.39;104088.88;5036244;28;20028;-73
2022/01/13 03:09:04;;;;;;;44.88;17.75;;;;;;;0.33;94.78;104088.66;5057584;28;20027;-74
2022/01/13 03:11:37;;;;;;;98.57;19.83;;;;;;;0.29;94.75;104096.91;5083850;28;20081;-74
2022/01/13 03:14:10;;;;;;;42.42;17.27;;;;;;;0.24;94.68;104087.88;5058779;28;20484;-74
2022/01/13 03:16:36;;;;;;;30.83;17.08;;;;;;;0.23;94.64;104085.16;5061005;28;20020;-73
2022/01/13 03:19:03;;;;;;;30.83;15.90;;;;;;;0.23;94.72;104090.31;5053362;28;20035;-73
2022/01/13 03:21:28;;;;;;;50.28;17.20;;;;;;;0.22;94.70;104083.38;5051932;28;20384;-73
2022/01/13 03:23:54;;;;;;;24.52;15.88;;;;;;;0.22;94.76;104084.28;5031832;28;20047;-73
2022/01/13 03:26:23;;;;;;;35.97;16.58;;;;;;;0.22;95.23;104089.44;5067901;28;20094;-74
2022/01/13 03:29:04;;;;;;;38.75;16.80;;;;;;;0.26;95.02;104085.41;5052767;28;20128;-73
2022/01/13 03:31:29;;;;;;;34.90;17.80;;;;;;;0.25;94.92;104073.31;5039991;28;20036;-73
2022/01/13 03:33:55;;;;;;;54.95;18.83;;;;;;;0.24;95.04;104072.38;5028111;28;20036;-73
2022/01/13 03:36:21;;;;;;;32.45;16.17;;;;;;;0.23;94.92;104070.59;5034251;28;20041;-74
2022/01/13 03:38:46;;;;;;;67.40;19.23;;;;;;;0.26;95.29;104067.34;5038436;28;20031;-73
2022/01/13 03:41:13;;;;;;;33.20;18.38;;;;;;;0.26;94.85;104070.84;5049515;28;20477;-73
2022/01/13 03:43:38;;;;;;;23.75;15.00;;;;;;;0.27;95.27;104064.91;5037870;28;20085;-74
2022/01/13 03:46:04;;;;;;;34.80;16.05;;;;;;;0.28;95.28;104069.28;5022298;28;20454;-73
2022/01/13 03:48:30;;;;;;;76.15;17.08;;;;;;;0.29;95.29;104070.22;5054468;28;20173;-73
2022/01/13 03:50:55;;;;;;;43.55;17.98;;;;;;;0.29;95.10;104071.09;5021577;28;20119;-73
2022/01/13 03:53:27;;;;;;;39.15;16.45;;;;;;;0.29;95.15;104073.69;5035188;28;20394;-73
2022/01/13 03:56:27;;;;;;;32.85;14.55;;;;;;;0.31;95.21;104069.53;5053423;28;20103;-72
2022/01/13 03:59:19;;;;;;;48.80;16.55;;;;;;;0.34;95.13;104071.47;5054154;28;20025;-73
2022/01/13 04:02:04;;;;;;;41.60;16.25;;;;;;;0.33;95.33;104067.09;5046893;28;20120;-72
2022/01/13 04:04:42;;;;;;;43.88;17.60;;;;;;;0.32;95.37;104073.94;5041190;28;20038;-74
2022/01/13 04:07:11;;;;;;;34.92;15.05;;;;;;;0.29;95.22;104070.22;5054483;28;20107;-73
2022/01/13 04:09:40;;;;;;;59.03;18.88;;;;;;;0.27;95.03;104064.91;5052594;28;20111;-73
2022/01/13 04:12:08;;;;;;;41.92;17.42;;;;;;;0.27;95.02;104064.91;5054678;28;20029;-72
2022/01/13 04:17:07;;;;;;;63.50;17.85;;;;;;;0.30;95.23;104060.03;5068701;28;20033;-73
2022/01/13 04:19:33;;;;;;;34.53;17.27;;;;;;;0.30;95.02;104051.34;5039949;28;20021;-73
2022/01/13 04:21:59;;;;;;;49.95;18.70;;;;;;;0.29;95.47;104055.63;5021855;28;20393;-73
2022/01/13 04:24:24;;;;;;;58.72;22.33;;;;;;;0.29;95.65;104054.75;5037337;28;20040;-72
2022/01/13 04:26:52;;;;;;;56.90;19.27;;;;;;;0.29;95.29;104054.75;5036102;28;20039;-73
2022/01/13 04:29:27;;;;;;;53.67;20.63;;;;;;;0.27;95.81;104054.59;5022000;28;20567;-72
2022/01/13 04:31:52;;;;;;;83.68;22.80;;;;;;;0.24;95.63;104054.34;5034640;28;20037;-73
2022/01/13 04:34:19;;;;;;;47.65;18.63;;;;;;;0.23;95.41;104051.63;5037180;28;20493;-73
2022/01/13 04:36:47;;;;;;;53.95;19.30;;;;;;;0.23;95.72;104051.63;5036159;28;20024;-73
2022/01/13 04:39:14;;;;;;;36.95;19.95;;;;;;;0.23;95.68;104054.22;5054282;28;20020;-73
2022/01/13 04:41:43;;;;;;;50.17;21.02;;;;;;;0.24;95.50;104050.88;5029591;28;20024;-74
2022/01/13 04:44:17;;;;;;;68.53;21.40;;;;;;;0.23;95.80;104052.56;5037278;28;20029;-74
2022/01/13 04:46:47;;;;;;;86.57;21.33;;;;;;;0.24;95.72;104046.59;5034594;28;20036;-75
2022/01/13 04:49:12;;;;;;;63.85;22.48;;;;;;;0.22;95.56;104043.00;5041162;28;20039;-74
2022/01/13 04:51:42;;;;;;;71.95;24.30;;;;;;;0.20;95.90;104041.94;5043182;28;20497;-75
2022/01/13 04:54:07;;;;;;;60.40;20.35;;;;;;;0.20;95.64;104043.66;5053655;28;20032;-75
2022/01/13 04:57:02;;;;;;;60.80;20.65;;;;;;;0.18;95.80;104040.94;5052601;28;20024;-75
2022/01/13 04:59:30;;;;;;;67.68;21.38;;;;;;;0.21;96.00;104048.94;5040427;28;20093;-74
2022/01/13 05:01:56;;;;;;;97.13;25.95;;;;;;;0.19;96.15;104053.06;5051623;28;20024;-74
2022/01/13 05:04:22;;;;;;;41.22;19.83;;;;;;;0.20;96.27;104049.69;5019190;28;20039;-74
2022/01/13 05:06:47;;;;;;;63.17;22.02;;;;;;;0.23;95.96;104052.56;5015454;28;20397;-75
2022/01/13 05:09:13;;;;;;;112.50;26.92;;;;;;;0.21;96.34;104056.66;5041451;28;20031;-74
2022/01/13 05:11:39;;;;;;;110.53;22.65;;;;;;;0.22;96.30;104065.31;5035154;28;20476;-75
2022/01/13 05:14:05;;;;;;;55.70;23.63;;;;;;;0.20;96.17;104062.59;5051480;28;20023;-74
2022/01/13 05:17:46;;;;;;;96.68;24.65;;;;;;;0.21;96.38;104053.19;5052515;28;20026;-75
2022/01/13 05:19:32;;;;;;;50.63;22.33;;;;;;;0.23;96.24;104057.72;5048271;28;20508;-74
2022/01/13 05:24:25;;;;;;;40.65;20.65;;;;;;;0.25;96.40;104052.69;5064878;28;20052;-74
2022/01/13 05:26:51;;;;;;;61.60;24.05;;;;;;;0.25;96.27;104051.00;5053061;28;20052;-74
2022/01/13 05:29:20;;;;;;;46.40;22.35;;;;;;;0.27;96.43;104057.16;5033594;28;20111;-74
2022/01/13 05:31:48;;;;;;;45.63;22.02;;;;;;;0.27;96.35;104045.94;5052953;28;20107;-74
2022/01/13 05:34:14;;;;;;;43.55;22.40;;;;;;;0.29;96.09;104045.31;5052081;28;20033;-74
2022/01/13 05:36:40;;;;;;;58.00;25.60;;;;;;;0.30;96.53;104043.63;5049124;28;20044;-74
2022/01/13 05:39:05;;;;;;;45.40;23.50;;;;;;;0.31;96.55;104043.75;5035758;28;20074;-74
2022/01/13 05:41:33;;;;;;;65.00;23.27;;;;;;;0.33;96.07;104042.22;5034522;28;20056;-75
2022/01/13 05:43:59;;;;;;;47.70;23.30;;;;;;;0.36;95.99;104040.63;5035759;28;20059;-75
2022/01/13 05:46:24;;;;;;;71.07;27.48;;;;;;;0.37;96.29;104047.63;5036263;28;20469;-74
2022/01/13 05:48:51;;;;;;;46.92;21.90;;;;;;;0.37;96.09;104052.78;5018539;28;20124;-74
2022/01/13 05:51:16;;;;;;;54.60;23.27;;;;;;;0.36;96.04;104053.53;5031465;28;20103;-74
2022/01/13 05:53:42;;;;;;;48.15;24.42;;;;;;;0.38;95.98;104049.44;5038740;28;20123;-75
2022/01/13 05:56:09;;;;;;;53.30;23.33;;;;;;;0.39;96.08;104046.03;5037064;28;20417;-74
2022/01/13 05:58:34;;;;;;;95.20;28.35;;;;;;;0.38;96.13;104046.84;5054335;28;20485;-74
2022/01/13 06:01:00;;;;;;;79.65;25.52;;;;;;;0.36;95.70;104045.81;5055924;28;20036;-74
2022/01/13 06:03:25;;;;;;;67.25;25.40;;;;;;;0.34;95.79;104046.59;5040903;28;20063;-74
2022/01/13 06:05:51;;;;;;;74.65;27.95;;;;;;;0.31;95.63;104054.06;5019413;28;20032;-73
2022/01/13 06:08:16;;;;;;;70.80;24.88;;;;;;;0.29;96.18;104050.47;5020366;28;20029;-74
2022/01/13 06:10:45;;;;;;;65.10;23.35;;;;;;;0.28;95.75;104051.22;5020407;28;20029;-74
2022/01/13 06:13:10;;;;;;;86.35;28.33;;;;;;;0.26;95.83;104057.97;5023594;28;20031;-72
2022/01/13 06:15:37;;;;;;;82.05;24.70;;;;;;;0.25;96.13;104061.31;5019827;28;20029;-73
2022/01/13 06:18:03;;;;;;;95.00;27.58;;;;;;;0.24;96.30;104053.44;5056683;28;20437;-73
2022/01/13 06:20:29;;;;;;;56.63;23.85;;;;;;;0.26;96.00;104054.47;5048602;28;20124;-73
2022/01/13 06:22:54;;;;;;;96.85;26.30;;;;;;;0.24;96.08;104051.75;5038939;28;20036;-72
2022/01/13 06:25:20;;;;;;;67.82;24.02;;;;;;;0.23;96.02;104049.97;5019087;28;20036;-73
2022/01/13 06:27:50;;;;;;;52.40;22.92;;;;;;;0.23;96.08;104049.97;5053872;28;20119;-73
2022/01/13 06:30:18;;;;;;;82.38;23.15;;;;;;;0.24;96.03;104045.69;5040082;28;20370;-73
2022/01/13 06:32:46;;;;;;;78.88;23.30;;;;;;;0.22;96.07;104048.16;5039313;28;20025;-73
2022/01/13 06:35:14;;;;;;;84.18;23.42;;;;;;;0.23;95.96;104044.81;5039565;28;20083;-73
2022/01/13 06:37:43;;;;;;;57.03;22.80;;;;;;;0.23;95.99;104044.81;5039999;28;20510;-74
2022/01/13 06:40:12;;;;;;;72.15;23.65;;;;;;;0.23;96.38;104039.66;5052495;28;20024;-73
2022/01/13 06:42:37;;;;;;;83.00;23.92;;;;;;;0.25;96.30;104044.94;5056594;28;20842;-73
2022/01/13 06:45:04;;;;;;;60.25;24.05;;;;;;;0.24;95.91;104043.13;5047217;28;20171;-73
2022/01/13 06:47:30;;;;;;;64.97;23.48;;;;;;;0.26;96.12;104049.28;5053156;28;20021;-72
2022/01/13 06:49:59;;;;;;;84.82;26.77;;;;;;;0.26;95.83;104044.13;5051590;28;20027;-74
2022/01/13 06:52:27;;;;;;;150.55;26.23;;;;;;;0.25;96.29;104032.03;5035357;28;20385;-73
2022/01/13 06:54:52;;;;;;;91.85;25.58;;;;;;;0.26;96.16;104028.66;5052898;28;20017;-73
2022/01/13 06:57:20;;;;;;;84.30;26.15;;;;;;;0.27;96.08;104035.63;5049760;28;20020;-72
2022/01/13 06:59:46;;;;;;;111.57;28.10;;;;;;;0.27;96.39;104036.53;5049214;28;20062;-72
2022/01/13 07:02:13;;;;;;;70.15;24.27;;;;;;;0.29;96.43;104035.00;5050638;28;20131;-73
2022/01/13 07:04:38;;;;;;;87.10;27.85;;;;;;;0.30;96.53;104036.81;5018195;28;20032;-72
2022/01/13 07:07:04;;;;;;;118.53;30.80;;;;;;;0.33;96.28;104036.13;5036760;28;20072;-73
2022/01/13 07:09:29;;;;;;;104.65;29.33;;;;;;;0.32;96.35;104044.66;5036913;28;20029;-72
2022/01/13 07:11:55;;;;;;;67.57;24.08;;;;;;;0.34;96.40;104044.03;5033172;28;20029;-73
2022/01/13 07:14:20;;;;;;;102.78;27.20;;;;;;;0.33;96.14;104055.09;5051797;28;20017;-73
2022/01/13 07:16:46;;;;;;;69.80;25.17;;;;;;;0.34;95.71;104054.34;5033518;28;20555;-73
2022/01/13 07:19:13;;;;;;;104.00;26.45;;;;;;;0.33;96.19;104047.38;5058094;28;20372;-73
2022/01/13 07:21:40;;;;;;;101.20;26.23;;;;;;;0.33;96.61;104043.88;5056638;28;20485;-73
2022/01/13 07:24:06;;;;;;;71.47;23.85;;;;;;;0.33;96.56;104047.38;5021259;28;20397;-72
2022/01/13 07:26:32;;;;;;;61.08;23.25;;;;;;;0.34;96.51;104037.94;5052823;28;20025;-73
2022/01/13 07:29:00;;;;;;;87.50;26.95;;;;;;;0.34;96.36;104049.19;5053947;28;20093;-72
2022/01/13 07:31:25;;;;;;;57.80;24.92;;;;;;;0.37;96.14;104051.09;5036954;28;20024;-74
2022/01/13 07:33:51;;;;;;;151.85;31.75;;;;;;;0.35;96.37;104039.75;5014038;28;20039;-73
2022/01/13 07:36:16;;;;;;;67.28;24.05;;;;;;;0.38;96.07;104045.16;5030336;28;20091;-73
2022/01/13 07:38:42;;;;;;;87.47;24.80;;;;;;;0.37;96.28;104039.88;5014577;28;20045;-73
2022/01/13 07:41:07;;;;;;;119.80;30.25;;;;;;;0.38;96.22;104044.28;5013426;28;20049;-73
2022/01/13 07:43:33;;;;;;;73.10;26.58;;;;;;;0.38;96.62;104041.69;5014757;28;20036;-72
2022/01/13 07:46:02;;;;;;;84.97;24.50;;;;;;;0.37;96.46;104045.91;4996442;28;20037;-73
2022/01/13 07:48:28;;;;;;;72.43;25.05;;;;;;;0.38;96.23;104049.44;5030450;28;20100;-73
2022/01/13 07:50:54;;;;;;;90.60;24.42;;;;;;;0.35;96.22;104052.66;5000699;28;20482;-73
2022/01/13 07:53:19;;;;;;;67.63;21.90;;;;;;;0.36;96.44;104056.13;4998941;28;20032;-73
2022/01/13 07:55:45;;;;;;;107.70;25.30;;;;;;;0.34;nan;104059.50;4990279;28;20026;-74
2022/01/13 07:58:10;;;;;;;128.35;26.40;;;;;;;0.35;96.50;104057.81;4997018;28;20025;-73
2022/01/13 08:00:36;;;;;;;114.10;27.13;;;;;;;0.34;96.42;104059.50;4993578;28;20034;-73
2022/01/13 08:03:03;;;;;;;88.20;24.48;;;;;;;0.38;96.49;104054.59;5029474;28;20519;-73
2022/01/13 08:05:28;;;;;;;81.35;23.63;;;;;;;0.39;96.54;104061.53;5031431;28;20021;-72
2022/01/13 08:07:54;;;;;;;70.90;23.13;;;;;;;0.40;96.79;104058.19;5031203;28;20052;-73
2022/01/13 08:10:19;;;;;;;114.18;26.58;;;;;;;0.38;96.43;104055.47;5031187;28;20509;-73
2022/01/13 08:12:44;;;;;;;99.38;24.83;;;;;;;0.37;96.71;104052.78;4998617;28;20037;-74
2022/01/13 08:15:14;;;;;;;95.90;25.02;;;;;;;0.34;96.48;104056.91;4994582;28;20493;-73
2022/01/13 08:20:29;;;;;;;83.50;24.73;;;;;;;0.39;96.52;104077.00;5025120;28;20622;-73
2022/01/13 08:22:55;;;;;;;88.63;22.92;;;;;;;0.38;96.78;104073.53;5019615;28;20053;-72
2022/01/13 08:25:21;;;;;;;105.93;23.15;;;;;;;0.42;96.79;104066.97;4995219;28;20482;-72
2022/01/13 08:27:47;;;;;;;69.40;23.05;;;;;;;0.43;96.88;104072.25;5020151;28;20108;-72
2022/01/13 08:30:13;;;;;;;66.22;21.38;;;;;;;0.47;96.87;104075.97;4997643;28;20172;-72
2022/01/13 08:32:38;;;;;;;63.00;21.50;;;;;;;0.49;96.58;104079.59;5031687;28;20036;-73
2022/01/13 08:35:05;;;;;;;114.28;23.50;;;;;;;0.50;96.92;104083.94;4995130;28;20577;-73
2022/01/13 08:37:32;;;;;;;95.07;21.90;;;;;;;0.52;96.63;104087.56;5025212;28;20382;-73
2022/01/13 08:39:58;;;;;;;60.15;19.85;;;;;;;0.53;96.95;104086.78;4997927;28;20068;-73
2022/01/13 08:42:24;;;;;;;99.07;24.40;;;;;;;0.54;96.91;104088.59;5014308;28;20721;-73
2022/01/13 08:44:50;;;;;;;64.35;20.15;;;;;;;0.54;96.74;104090.28;4997525;28;20163;-73
2022/01/13 08:47:18;;;;;;;53.35;21.33;;;;;;;0.57;96.81;104088.84;5030433;28;20025;-73
2022/01/13 08:49:43;;;;;;;53.50;20.55;;;;;;;0.59;97.11;104092.47;5025912;28;20025;-73
2022/01/13 08:52:09;;;;;;;90.20;21.73;;;;;;;0.61;96.64;104098.63;5014292;28;20033;-73
2022/01/13 08:54:34;;;;;;;60.88;21.27;;;;;;;0.62;96.84;104087.53;4997350;28;20022;-72
2022/01/13 08:57:00;;;;;;;47.78;22.13;;;;;;;0.63;96.88;104091.94;5007438;28;20034;-73
2022/01/13 08:59:26;;;;;;;73.05;19.83;;;;;;;0.64;97.06;104096.31;5014632;28;20106;-73
2022/01/13 09:01:55;;;;;;;69.93;23.58;;;;;;;0.67;97.12;104091.38;5010445;28;20061;-73
2022/01/13 09:04:21;;;;;;;66.53;23.05;;;;;;;0.71;97.16;104097.72;5026690;28;20032;-73
2022/01/13 09:06:46;;;;;;;67.97;22.25;;;;;;;0.74;96.95;104097.06;5014319;28;20036;-73
2022/01/13 09:09:14;;;;;;;68.05;21.27;;;;;;;0.74;96.97;104099.66;5014271;28;20037;-73
2022/01/13 09:11:40;;;;;;;82.78;21.77;;;;;;;0.78;97.04;104096.53;5014020;28;20033;-73
2022/01/13 09:14:06;;;;;;;56.92;22.80;;;;;;;0.82;96.72;104103.72;5002373;28;20036;-73
2022/01/13 09:16:41;;;;;;;68.63;20.27;;;;;;;0.83;97.15;104097.78;5014349;28;20025;-73
2022/01/13 09:19:11;;;;;;;66.82;20.67;;;;;;;0.84;97.03;104100.50;5005413;28;20111;-72
2022/01/13 09:21:38;;;;;;;63.25;21.58;;;;;;;0.84;97.01;104107.34;5020626;28;20075;-73
2022/01/13 09:24:06;;;;;;;56.72;19.98;;;;;;;0.85;96.79;104106.59;5010532;28;20025;-73
2022/01/13 09:26:31;;;;;;;56.85;18.08;;;;;;;0.85;96.87;104101.41;5030108;28;20040;-73
2022/01/13 09:28:57;;;;;;;106.03;25.58;;;;;;;0.84;96.75;104097.91;5009845;28;20041;-73
2022/01/13 09:31:22;;;;;;;46.88;19.80;;;;;;;0.84;96.85;104094.44;5008303;28;20469;-72
2022/01/13 09:33:49;;;;;;;65.03;19.55;;;;;;;0.87;96.28;104099.84;4997473;28;20496;-73
2022/01/13 09:36:15;;;;;;;74.22;23.13;;;;;;;0.91;96.80;104101.91;5009367;28;20114;-73
2022/01/13 09:38:41;;;;;;;63.10;21.55;;;;;;;0.91;97.06;104101.91;5050289;28;20436;-73
2022/01/13 09:41:06;;;;;;;62.92;21.35;;;;;;;0.94;97.00;104104.72;5032597;28;20056;-73
2022/01/13 09:43:31;;;;;;;58.15;19.08;;;;;;;0.98;97.04;104104.19;5014919;28;20025;-72
2022/01/13 09:46:00;;;;;;;118.95;22.13;;;;;;;1.01;97.52;104099.28;5033239;28;20115;-72
2022/01/13 09:48:27;;;;;;;77.15;19.67;;;;;;;1.02;97.23;104108.84;5032853;28;20045;-73
2022/01/13 09:50:53;;;;;;;54.17;20.38;;;;;;;1.02;97.41;104102.75;5033609;28;20029;-73
2022/01/13 09:53:19;;;;;;;88.28;22.00;;;;;;;1.00;97.27;104107.78;5015486;28;20057;-73
2022/01/13 09:55:46;;;;;;;146.65;29.75;;;;;;;1.01;97.12;104108.72;5026830;28;20437;-74
2022/01/13 09:58:12;;;;;;;169.40;35.83;;;;;;;1.07;97.15;104113.47;5049264;28;20029;-73
2022/01/13 10:00:39;;;;;;;169.45;32.88;;;;;;;1.09;97.17;104112.78;5017324;28;20029;-72
2022/01/13 10:03:14;;;;;;;63.10;20.83;;;;;;;1.17;97.39;104118.59;5027527;28;20057;-73
2022/01/13 10:06:07;;;;;;;63.17;20.20;;;;;;;1.21;97.83;104111.19;5046977;28;20520;-72
2022/01/13 10:08:48;;;;;;;534.17;103.85;;;;;;;1.33;97.55;104102.63;5059666;28;20071;-73
2022/01/13 10:11:54;;;;;;;86.43;23.52;;;;;;;1.40;97.51;104114.34;5030685;28;20026;-73
2022/01/13 10:16:54;;;;;;;117.57;27.27;;;;;;;1.49;97.32;104112.47;5051150;28;20366;-73
2022/01/13 10:19:38;;;;;;;458.67;81.63;;;;;;;1.53;97.90;104117.09;5037770;28;20029;-72
2022/01/13 10:22:07;;;;;;;69.38;19.75;;;;;;;1.55;97.86;104116.44;5033676;28;20326;-73
2022/01/13 10:24:35;;;;;;;68.72;21.15;;;;;;;1.59;97.19;104109.81;5048871;28;20107;-72
2022/01/13 10:27:10;;;;;;;45.50;18.80;;;;;;;1.60;97.47;104113.31;5049939;28;20051;-73
2022/01/13 10:29:42;;;;;;;56.40;20.02;;;;;;;1.70;96.88;104102.91;5048571;28;20021;-73
2022/01/13 10:32:10;;;;;;;83.78;22.50;;;;;;;1.73;97.16;104091.09;5045996;28;20116;-73
2022/01/13 10:34:39;;;;;;;60.75;20.67;;;;;;;1.79;97.12;104094.94;5049179;28;20041;-73
2022/01/13 10:37:19;;;;;;;134.63;31.80;;;;;;;1.80;96.98;104091.59;5047235;28;20440;-73
2022/01/13 10:39:49;;;;;;;47.60;19.13;;;;;;;1.84;96.84;104103.94;5049676;28;20047;-73
2022/01/13 10:42:44;;;;;;;52.20;21.10;;;;;;;1.85;96.15;104093.75;5048535;28;20071;-73
2022/01/13 10:45:14;;;;;;;471.00;78.65;;;;;;;1.95;95.96;104097.91;5050925;28;20106;-72
2022/01/13 10:47:49;;;;;;;49.75;20.65;;;;;;;1.97;96.16;104092.84;5052546;28;20021;-72
2022/01/13 10:50:17;;;;;;;38.55;18.75;;;;;;;1.98;96.29;104092.97;5052404;28;20126;-73
2022/01/13 10:52:45;;;;;;;50.13;19.15;;;;;;;2.01;96.21;104088.06;5052236;28;20087;-72
2022/01/13 10:55:19;;;;;;;41.25;19.10;;;;;;;2.02;95.39;104086.34;5033311;28;20025;-73
2022/01/13 10:57:49;;;;;;;77.47;25.33;;;;;;;2.08;94.95;104091.97;5065531;28;20029;-73
2022/01/13 11:00:18;;;;;;;41.80;20.40;;;;;;;2.04;94.74;104098.63;5049081;28;20017;-73
2022/01/13 11:02:45;;;;;;;174.52;37.70;;;;;;;2.08;95.19;104095.50;5052277;28;20052;-73
2022/01/13 11:05:10;;;;;;;37.83;18.90;;;;;;;2.09;94.67;104088.63;5026385;28;20025;-73
2022/01/13 11:07:37;;;;;;;51.60;21.08;;;;;;;2.12;94.83;104085.38;5032411;28;20171;-73
2022/01/13 11:10:06;;;;;;;31.70;19.48;;;;;;;2.16;95.11;104077.06;5032679;28;20041;-72
2022/01/13 11:12:44;;;;;;;449.77;97.15;;;;;;;2.24;94.94;104066.50;5046293;28;20051;-73
2022/01/13 11:15:15;;;;;;;160.35;37.40;;;;;;;2.20;95.52;104069.63;5051190;28;20040;-73
2022/01/13 11:17:43;;;;;;;48.08;20.08;;;;;;;2.21;94.40;104065.34;5057331;28;20025;-72
2022/01/13 11:20:12;;;;;;;44.42;21.25;;;;;;;2.30;94.33;104063.47;5033015;28;20041;-72
2022/01/13 11:22:43;;;;;;;37.28;20.77;;;;;;;2.35;95.11;104059.50;5048110;28;20120;-73
2022/01/13 11:25:11;;;;;;;47.67;21.83;;;;;;;2.40;95.11;104052.09;5047249;28;20033;-73
2022/01/13 11:27:40;;;;;;;36.30;19.17;;;;;;;2.45;94.42;104052.44;5041568;28;20155;-73
2022/01/13 11:30:12;;;;;;;32.92;17.55;;;;;;;2.41;93.81;104054.81;5045515;28;20035;-73
2022/01/13 11:32:42;;;;;;;48.88;18.40;;;;;;;2.36;93.50;104053.53;5049845;28;20020;-73
2022/01/13 11:35:15;;;;;;;43.92;18.13;;;;;;;2.29;93.04;104053.88;5039058;28;20076;-73
2022/01/13 11:37:41;;;;;;;35.35;19.05;;;;;;;2.28;93.92;104046.91;5046258;28;20057;-73
2022/01/13 11:40:27;;;;;;;41.40;19.50;;;;;;;2.28;93.67;104049.47;5022059;28;20033;-72
2022/01/13 11:42:54;;;;;;;41.75;20.08;;;;;;;2.31;93.97;104052.28;5036991;28;20044;-73